sensor_id;sensor_type;location;lat;lon;timestamp;temperature;humidity
35559;DHT22;21661;50.794;-1.066;2023-06-22T00:01:58;18.00;99.90
35559;DHT22;21661;50.794;-1.066;2023-06-22T00:04:24;18.10;99.90
35559;DHT22;21661;50.794;-1.066;2023-06-22T00:06:49;18.00;99.90
35559;DHT22;21661;50.794;-1.066;2023-06-22T00:09:15;18.00;99.90
35559;DHT22;21661;50.794;-1.066;2023-06-22T00:11:40;18.10;99.90
35559;DHT22;21661;50.794;-1.066;2023-06-22T00:14:06;18.10;99.90
35559;DHT22;21661;50.794;-1.066;2023-06-22T00:16:32;18.10;99.90
35559;DHT22;21661;50.794;-1.066;2023-06-22T00:18:58;18.00;99.90
35559;DHT22;21661;50.794;-1.066;2023-06-22T00:21:26;18.00;99.90
35559;DHT22;21661;50.794;-1.066;2023-06-22T00:23:52;18.00;99.90
35559;DHT22;21661;50.794;-1.066;2023-06-22T00:26:18;17.90;99.90
35559;DHT22;21661;50.794;-1.066;2023-06-22T00:28:44;17.90;99.90
35559;DHT22;21661;50.794;-1.066;2023-06-22T00:31:09;17.90;99.90
35559;DHT22;21661;50.794;-1.066;2023-06-22T00:33:35;17.90;99.90
35559;DHT22;21661;50.794;-1.066;2023-06-22T00:36:01;17.90;99.90
35559;DHT22;21661;50.794;-1.066;2023-06-22T00:38:28;17.80;99.90
35559;DHT22;21661;50.794;-1.066;2023-06-22T00:40:54;17.80;99.90
35559;DHT22;21661;50.794;-1.066;2023-06-22T00:43:20;17.90;99.90
35559;DHT22;21661;50.794;-1.066;2023-06-22T00:45:45;17.90;99.90
35559;DHT22;21661;50.794;-1.066;2023-06-22T00:48:12;17.90;99.90
35559;DHT22;21661;50.794;-1.066;2023-06-22T00:50:38;17.90;99.90
35559;DHT22;21661;50.794;-1.066;2023-06-22T00:53:08;17.90;99.90
35559;DHT22;21661;50.794;-1.066;2023-06-22T00:55:39;17.80;99.90
35559;DHT22;21661;50.794;-1.066;2023-06-22T00:58:09;17.80;99.90
35559;DHT22;21661;50.794;-1.066;2023-06-22T01:00:36;17.80;99.90
35559;DHT22;21661;50.794;-1.066;2023-06-22T01:03:03;17.70;99.90
35559;DHT22;21661;50.794;-1.066;2023-06-22T01:05:29;17.70;99.90
35559;DHT22;21661;50.794;-1.066;2023-06-22T01:11:01;17.70;99.90
35559;DHT22;21661;50.794;-1.066;2023-06-22T01:16:26;17.60;99.90
35559;DHT22;21661;50.794;-1.066;2023-06-22T01:18:55;17.70;99.90
35559;DHT22;21661;50.794;-1.066;2023-06-22T01:21:24;17.70;99.90
35559;DHT22;21661;50.794;-1.066;2023-06-22T01:23:56;17.60;99.90
35559;DHT22;21661;50.794;-1.066;2023-06-22T01:28:59;17.60;99.90
35559;DHT22;21661;50.794;-1.066;2023-06-22T01:31:27;17.60;99.90
35559;DHT22;21661;50.794;-1.066;2023-06-22T01:33:57;17.60;99.90
35559;DHT22;21661;50.794;-1.066;2023-06-22T01:36:24;17.60;99.90
35559;DHT22;21661;50.794;-1.066;2023-06-22T01:38:52;17.60;99.90
35559;DHT22;21661;50.794;-1.066;2023-06-22T01:41:19;17.60;99.90
35559;DHT22;21661;50.794;-1.066;2023-06-22T01:43:45;17.60;99.90
35559;DHT22;21661;50.794;-1.066;2023-06-22T01:46:11;17.60;99.90
35559;DHT22;21661;50.794;-1.066;2023-06-22T01:48:38;17.60;99.90
35559;DHT22;21661;50.794;-1.066;2023-06-22T01:51:04;17.60;99.90
35559;DHT22;21661;50.794;-1.066;2023-06-22T01:53:30;17.70;99.90
35559;DHT22;21661;50.794;-1.066;2023-06-22T01:55:56;17.70;99.90
35559;DHT22;21661;50.794;-1.066;2023-06-22T01:58:27;17.60;99.90
35559;DHT22;21661;50.794;-1.066;2023-06-22T02:01:12;17.70;99.90
35559;DHT22;21661;50.794;-1.066;2023-06-22T02:03:44;17.60;99.90
35559;DHT22;21661;50.794;-1.066;2023-06-22T02:06:17;17.60;99.90
35559;DHT22;21661;50.794;-1.066;2023-06-22T02:08:55;17.50;99.90
35559;DHT22;21661;50.794;-1.066;2023-06-22T02:11:22;17.60;99.90
35559;DHT22;21661;50.794;-1.066;2023-06-22T02:13:49;17.60;99.90
35559;DHT22;21661;50.794;-1.066;2023-06-22T02:16:16;17.50;99.90
35559;DHT22;21661;50.794;-1.066;2023-06-22T02:18:50;17.60;99.90
35559;DHT22;21661;50.794;-1.066;2023-06-22T02:21:19;17.60;99.90
35559;DHT22;21661;50.794;-1.066;2023-06-22T02:23:45;17.60;99.90
35559;DHT22;21661;50.794;-1.066;2023-06-22T02:26:11;17.70;99.90
35559;DHT22;21661;50.794;-1.066;2023-06-22T02:28:37;17.70;99.90
35559;DHT22;21661;50.794;-1.066;2023-06-22T02:31:03;17.70;99.90
35559;DHT22;21661;50.794;-1.066;2023-06-22T02:33:29;17.80;99.90
35559;DHT22;21661;50.794;-1.066;2023-06-22T02:35:54;17.80;99.90
35559;DHT22;21661;50.794;-1.066;2023-06-22T02:38:20;17.80;99.90
35559;DHT22;21661;50.794;-1.066;2023-06-22T02:40:46;17.70;99.90
35559;DHT22;21661;50.794;-1.066;2023-06-22T02:43:12;17.70;99.90
35559;DHT22;21661;50.794;-1.066;2023-06-22T02:45:37;17.70;99.90
35559;DHT22;21661;50.794;-1.066;2023-06-22T02:48:03;17.60;99.90
35559;DHT22;21661;50.794;-1.066;2023-06-22T02:50:29;17.60;99.90
35559;DHT22;21661;50.794;-1.066;2023-06-22T02:52:55;17.50;99.90
35559;DHT22;21661;50.794;-1.066;2023-06-22T02:55:20;17.60;99.90
35559;DHT22;21661;50.794;-1.066;2023-06-22T02:57:46;17.60;99.90
35559;DHT22;21661;50.794;-1.066;2023-06-22T03:00:14;17.60;99.90
35559;DHT22;21661;50.794;-1.066;2023-06-22T03:02:46;17.60;99.90
35559;DHT22;21661;50.794;-1.066;2023-06-22T03:05:13;17.60;99.90
35559;DHT22;21661;50.794;-1.066;2023-06-22T03:07:43;17.60;99.90
35559;DHT22;21661;50.794;-1.066;2023-06-22T03:10:09;17.60;99.90
35559;DHT22;21661;50.794;-1.066;2023-06-22T03:12:35;17.60;99.90
35559;DHT22;21661;50.794;-1.066;2023-06-22T03:15:01;17.60;99.90
35559;DHT22;21661;50.794;-1.066;2023-06-22T03:17:27;17.60;99.90
35559;DHT22;21661;50.794;-1.066;2023-06-22T03:19:52;17.70;99.90
35559;DHT22;21661;50.794;-1.066;2023-06-22T03:22:18;17.70;99.90
35559;DHT22;21661;50.794;-1.066;2023-06-22T03:24:43;17.70;99.90
35559;DHT22;21661;50.794;-1.066;2023-06-22T03:27:09;17.70;99.90
35559;DHT22;21661;50.794;-1.066;2023-06-22T03:29:34;17.60;99.90
35559;DHT22;21661;50.794;-1.066;2023-06-22T03:32:00;17.60;99.90
35559;DHT22;21661;50.794;-1.066;2023-06-22T03:34:26;17.60;99.90
35559;DHT22;21661;50.794;-1.066;2023-06-22T03:36:51;17.50;99.90
35559;DHT22;21661;50.794;-1.066;2023-06-22T03:39:17;17.60;99.90
35559;DHT22;21661;50.794;-1.066;2023-06-22T03:41:43;17.60;99.90
35559;DHT22;21661;50.794;-1.066;2023-06-22T03:44:08;17.60;99.90
35559;DHT22;21661;50.794;-1.066;2023-06-22T03:46:37;17.60;99.90
35559;DHT22;21661;50.794;-1.066;2023-06-22T03:49:03;17.60;99.90
35559;DHT22;21661;50.794;-1.066;2023-06-22T03:51:29;17.60;99.90
35559;DHT22;21661;50.794;-1.066;2023-06-22T03:53:54;17.60;99.90
35559;DHT22;21661;50.794;-1.066;2023-06-22T03:56:20;17.60;99.90
35559;DHT22;21661;50.794;-1.066;2023-06-22T03:58:46;17.60;99.90
35559;DHT22;21661;50.794;-1.066;2023-06-22T04:01:12;17.60;99.90
35559;DHT22;21661;50.794;-1.066;2023-06-22T04:03:38;17.60;99.90
35559;DHT22;21661;50.794;-1.066;2023-06-22T04:06:04;17.60;99.90
35559;DHT22;21661;50.794;-1.066;2023-06-22T04:08:29;17.60;99.90
35559;DHT22;21661;50.794;-1.066;2023-06-22T04:10:55;17.60;99.90
35559;DHT22;21661;50.794;-1.066;2023-06-22T04:13:21;17.60;99.90
35559;DHT22;21661;50.794;-1.066;2023-06-22T04:15:46;17.60;99.90
35559;DHT22;21661;50.794;-1.066;2023-06-22T04:18:12;17.50;99.90
35559;DHT22;21661;50.794;-1.066;2023-06-22T04:20:38;17.50;99.90
35559;DHT22;21661;50.794;-1.066;2023-06-22T04:23:04;17.50;99.90
35559;DHT22;21661;50.794;-1.066;2023-06-22T04:25:30;17.50;99.90
35559;DHT22;21661;50.794;-1.066;2023-06-22T04:27:55;17.40;99.90
35559;DHT22;21661;50.794;-1.066;2023-06-22T04:30:21;17.40;99.90
35559;DHT22;21661;50.794;-1.066;2023-06-22T04:32:47;17.50;99.90
35559;DHT22;21661;50.794;-1.066;2023-06-22T04:35:21;17.50;99.90
35559;DHT22;21661;50.794;-1.066;2023-06-22T04:37:48;17.50;99.90
35559;DHT22;21661;50.794;-1.066;2023-06-22T04:40:15;17.50;99.90
35559;DHT22;21661;50.794;-1.066;2023-06-22T04:42:41;17.50;99.90
35559;DHT22;21661;50.794;-1.066;2023-06-22T04:45:17;17.60;99.90
35559;DHT22;21661;50.794;-1.066;2023-06-22T04:47:43;17.60;99.90
35559;DHT22;21661;50.794;-1.066;2023-06-22T04:50:13;17.60;99.90
35559;DHT22;21661;50.794;-1.066;2023-06-22T04:52:39;17.60;99.90
35559;DHT22;21661;50.794;-1.066;2023-06-22T04:55:05;17.70;99.90
35559;DHT22;21661;50.794;-1.066;2023-06-22T04:57:31;17.70;99.90
35559;DHT22;21661;50.794;-1.066;2023-06-22T04:59:58;17.70;99.90
35559;DHT22;21661;50.794;-1.066;2023-06-22T05:02:36;17.70;99.90
35559;DHT22;21661;50.794;-1.066;2023-06-22T05:05:03;17.70;99.90
35559;DHT22;21661;50.794;-1.066;2023-06-22T05:07:33;17.80;99.90
35559;DHT22;21661;50.794;-1.066;2023-06-22T05:09:59;17.70;99.90
35559;DHT22;21661;50.794;-1.066;2023-06-22T05:12:24;17.80;99.90
35559;DHT22;21661;50.794;-1.066;2023-06-22T05:14:50;17.80;99.90
35559;DHT22;21661;50.794;-1.066;2023-06-22T05:17:15;17.70;99.90
35559;DHT22;21661;50.794;-1.066;2023-06-22T05:19:45;17.80;99.90
35559;DHT22;21661;50.794;-1.066;2023-06-22T05:22:15;17.90;99.90
35559;DHT22;21661;50.794;-1.066;2023-06-22T05:24:41;17.90;99.90
35559;DHT22;21661;50.794;-1.066;2023-06-22T05:27:06;17.80;99.90
35559;DHT22;21661;50.794;-1.066;2023-06-22T05:29:32;17.90;99.90
35559;DHT22;21661;50.794;-1.066;2023-06-22T05:31:57;17.90;99.90
35559;DHT22;21661;50.794;-1.066;2023-06-22T05:34:23;17.90;99.90
35559;DHT22;21661;50.794;-1.066;2023-06-22T05:36:49;17.80;99.90
35559;DHT22;21661;50.794;-1.066;2023-06-22T05:39:15;17.90;99.90
35559;DHT22;21661;50.794;-1.066;2023-06-22T05:41:41;17.80;99.90
35559;DHT22;21661;50.794;-1.066;2023-06-22T05:44:06;17.80;99.90
35559;DHT22;21661;50.794;-1.066;2023-06-22T05:46:32;17.80;99.90
35559;DHT22;21661;50.794;-1.066;2023-06-22T05:48:58;18.00;99.90
35559;DHT22;21661;50.794;-1.066;2023-06-22T05:51:23;18.00;99.90
35559;DHT22;21661;50.794;-1.066;2023-06-22T05:53:49;18.00;99.90
35559;DHT22;21661;50.794;-1.066;2023-06-22T05:56:18;18.00;99.90
35559;DHT22;21661;50.794;-1.066;2023-06-22T05:58:44;18.00;99.90
35559;DHT22;21661;50.794;-1.066;2023-06-22T06:01:09;18.10;99.90
35559;DHT22;21661;50.794;-1.066;2023-06-22T06:03:35;18.10;99.90
35559;DHT22;21661;50.794;-1.066;2023-06-22T06:06:06;18.10;99.90
35559;DHT22;21661;50.794;-1.066;2023-06-22T06:08:32;18.10;99.90
35559;DHT22;21661;50.794;-1.066;2023-06-22T06:10:58;18.10;99.90
35559;DHT22;21661;50.794;-1.066;2023-06-22T06:13:23;18.20;99.90
35559;DHT22;21661;50.794;-1.066;2023-06-22T06:15:49;18.30;99.90
35559;DHT22;21661;50.794;-1.066;2023-06-22T06:18:17;18.20;99.90
35559;DHT22;21661;50.794;-1.066;2023-06-22T06:20:42;18.30;99.90
35559;DHT22;21661;50.794;-1.066;2023-06-22T06:23:08;18.40;99.90
35559;DHT22;21661;50.794;-1.066;2023-06-22T06:25:34;18.40;99.90
35559;DHT22;21661;50.794;-1.066;2023-06-22T06:27:59;18.40;99.90
35559;DHT22;21661;50.794;-1.066;2023-06-22T06:30:25;18.40;99.90
35559;DHT22;21661;50.794;-1.066;2023-06-22T06:32:50;18.50;99.90
35559;DHT22;21661;50.794;-1.066;2023-06-22T06:35:16;18.50;99.90
35559;DHT22;21661;50.794;-1.066;2023-06-22T06:37:44;18.50;99.90
35559;DHT22;21661;50.794;-1.066;2023-06-22T06:40:12;18.50;99.90
35559;DHT22;21661;50.794;-1.066;2023-06-22T06:42:38;18.60;99.90
35559;DHT22;21661;50.794;-1.066;2023-06-22T06:45:06;18.70;99.90
35559;DHT22;21661;50.794;-1.066;2023-06-22T06:47:32;18.70;99.90
35559;DHT22;21661;50.794;-1.066;2023-06-22T06:49:57;18.70;99.90
35559;DHT22;21661;50.794;-1.066;2023-06-22T06:52:23;18.60;99.90
35559;DHT22;21661;50.794;-1.066;2023-06-22T06:54:49;18.60;99.90
35559;DHT22;21661;50.794;-1.066;2023-06-22T06:57:17;18.60;99.90
35559;DHT22;21661;50.794;-1.066;2023-06-22T06:59:43;18.60;99.90
35559;DHT22;21661;50.794;-1.066;2023-06-22T07:02:08;18.50;99.90
35559;DHT22;21661;50.794;-1.066;2023-06-22T07:04:34;18.40;99.90
35559;DHT22;21661;50.794;-1.066;2023-06-22T07:07:01;18.40;99.90
35559;DHT22;21661;50.794;-1.066;2023-06-22T07:09:27;18.50;99.90
35559;DHT22;21661;50.794;-1.066;2023-06-22T07:11:53;18.50;99.90
35559;DHT22;21661;50.794;-1.066;2023-06-22T07:14:18;18.50;99.90
35559;DHT22;21661;50.794;-1.066;2023-06-22T07:16:44;18.60;99.90
35559;DHT22;21661;50.794;-1.066;2023-06-22T07:19:11;18.50;99.90
35559;DHT22;21661;50.794;-1.066;2023-06-22T07:21:38;18.60;99.90
35559;DHT22;21661;50.794;-1.066;2023-06-22T07:24:05;18.80;99.90
35559;DHT22;21661;50.794;-1.066;2023-06-22T07:26:31;18.90;99.90
35559;DHT22;21661;50.794;-1.066;2023-06-22T07:28:57;19.00;99.90
35559;DHT22;21661;50.794;-1.066;2023-06-22T07:31:24;19.00;99.90
35559;DHT22;21661;50.794;-1.066;2023-06-22T07:33:50;19.10;99.90
35559;DHT22;21661;50.794;-1.066;2023-06-22T07:36:17;19.10;99.90
35559;DHT22;21661;50.794;-1.066;2023-06-22T07:38:43;19.20;99.90
35559;DHT22;21661;50.794;-1.066;2023-06-22T07:41:08;19.10;99.90
35559;DHT22;21661;50.794;-1.066;2023-06-22T07:43:34;19.00;99.90
35559;DHT22;21661;50.794;-1.066;2023-06-22T07:46:03;19.00;99.90
35559;DHT22;21661;50.794;-1.066;2023-06-22T07:48:29;19.00;99.90
35559;DHT22;21661;50.794;-1.066;2023-06-22T07:50:55;19.00;99.90
35559;DHT22;21661;50.794;-1.066;2023-06-22T07:53:21;19.00;99.90
35559;DHT22;21661;50.794;-1.066;2023-06-22T07:55:47;19.10;99.90
35559;DHT22;21661;50.794;-1.066;2023-06-22T07:58:13;19.20;99.90
35559;DHT22;21661;50.794;-1.066;2023-06-22T08:00:39;19.30;99.90
35559;DHT22;21661;50.794;-1.066;2023-06-22T08:03:05;19.30;99.90
35559;DHT22;21661;50.794;-1.066;2023-06-22T08:05:31;19.40;99.90
35559;DHT22;21661;50.794;-1.066;2023-06-22T08:07:57;19.40;99.90
35559;DHT22;21661;50.794;-1.066;2023-06-22T08:10:23;19.40;99.90
35559;DHT22;21661;50.794;-1.066;2023-06-22T08:12:48;19.30;99.90
35559;DHT22;21661;50.794;-1.066;2023-06-22T08:15:14;19.20;99.90
35559;DHT22;21661;50.794;-1.066;2023-06-22T08:17:40;19.20;99.90
35559;DHT22;21661;50.794;-1.066;2023-06-22T08:20:07;19.20;99.90
35559;DHT22;21661;50.794;-1.066;2023-06-22T08:22:37;19.20;99.90
35559;DHT22;21661;50.794;-1.066;2023-06-22T08:25:03;19.30;99.90
35559;DHT22;21661;50.794;-1.066;2023-06-22T08:27:30;19.30;99.90
35559;DHT22;21661;50.794;-1.066;2023-06-22T08:30:00;19.30;99.90
35559;DHT22;21661;50.794;-1.066;2023-06-22T08:32:27;19.30;99.90
35559;DHT22;21661;50.794;-1.066;2023-06-22T08:34:54;19.30;99.90
35559;DHT22;21661;50.794;-1.066;2023-06-22T08:37:20;19.40;99.90
35559;DHT22;21661;50.794;-1.066;2023-06-22T08:39:46;19.40;99.90
35559;DHT22;21661;50.794;-1.066;2023-06-22T08:42:12;19.50;99.90
35559;DHT22;21661;50.794;-1.066;2023-06-22T08:44:37;19.50;99.90
35559;DHT22;21661;50.794;-1.066;2023-06-22T08:47:03;19.50;99.90
35559;DHT22;21661;50.794;-1.066;2023-06-22T08:49:29;19.60;99.90
35559;DHT22;21661;50.794;-1.066;2023-06-22T08:51:55;19.70;99.90
35559;DHT22;21661;50.794;-1.066;2023-06-22T08:54:22;19.70;99.90
35559;DHT22;21661;50.794;-1.066;2023-06-22T08:56:47;19.80;99.90
35559;DHT22;21661;50.794;-1.066;2023-06-22T08:59:14;19.80;99.90
35559;DHT22;21661;50.794;-1.066;2023-06-22T09:01:40;19.90;99.90
35559;DHT22;21661;50.794;-1.066;2023-06-22T09:04:05;19.90;99.90
35559;DHT22;21661;50.794;-1.066;2023-06-22T09:06:33;20.00;99.90
35559;DHT22;21661;50.794;-1.066;2023-06-22T09:08:58;20.00;99.90
35559;DHT22;21661;50.794;-1.066;2023-06-22T09:11:27;20.10;99.90
35559;DHT22;21661;50.794;-1.066;2023-06-22T09:13:53;20.20;99.90
35559;DHT22;21661;50.794;-1.066;2023-06-22T09:16:19;20.30;99.90
35559;DHT22;21661;50.794;-1.066;2023-06-22T09:18:48;20.40;99.90
35559;DHT22;21661;50.794;-1.066;2023-06-22T09:21:13;20.50;99.90
35559;DHT22;21661;50.794;-1.066;2023-06-22T09:23:39;20.60;99.90
35559;DHT22;21661;50.794;-1.066;2023-06-22T09:26:05;20.60;99.90
35559;DHT22;21661;50.794;-1.066;2023-06-22T09:28:31;20.60;99.90
35559;DHT22;21661;50.794;-1.066;2023-06-22T09:30:56;20.70;99.90
35559;DHT22;21661;50.794;-1.066;2023-06-22T09:33:24;20.70;99.90
35559;DHT22;21661;50.794;-1.066;2023-06-22T09:35:50;20.80;99.90
35559;DHT22;21661;50.794;-1.066;2023-06-22T09:38:16;20.80;99.90
35559;DHT22;21661;50.794;-1.066;2023-06-22T09:40:42;20.90;99.90
35559;DHT22;21661;50.794;-1.066;2023-06-22T09:43:07;21.00;99.90
35559;DHT22;21661;50.794;-1.066;2023-06-22T09:45:33;21.00;99.90
35559;DHT22;21661;50.794;-1.066;2023-06-22T09:47:59;21.10;99.90
35559;DHT22;21661;50.794;-1.066;2023-06-22T09:50:24;21.20;99.90
35559;DHT22;21661;50.794;-1.066;2023-06-22T09:52:50;21.30;99.90
35559;DHT22;21661;50.794;-1.066;2023-06-22T09:55:20;21.30;99.90
35559;DHT22;21661;50.794;-1.066;2023-06-22T09:57:46;21.60;99.90
35559;DHT22;21661;50.794;-1.066;2023-06-22T10:00:12;21.70;99.90
35559;DHT22;21661;50.794;-1.066;2023-06-22T10:02:44;21.70;99.90
35559;DHT22;21661;50.794;-1.066;2023-06-22T10:05:10;21.70;99.90
35559;DHT22;21661;50.794;-1.066;2023-06-22T10:07:35;21.70;99.90
35559;DHT22;21661;50.794;-1.066;2023-06-22T10:10:06;21.70;99.90
35559;DHT22;21661;50.794;-1.066;2023-06-22T10:12:32;21.70;99.90
35559;DHT22;21661;50.794;-1.066;2023-06-22T10:14:57;21.80;99.90
35559;DHT22;21661;50.794;-1.066;2023-06-22T10:17:23;21.80;99.90
35559;DHT22;21661;50.794;-1.066;2023-06-22T10:19:49;21.90;99.90
35559;DHT22;21661;50.794;-1.066;2023-06-22T10:22:14;21.80;99.90
35559;DHT22;21661;50.794;-1.066;2023-06-22T10:24:40;21.90;99.90
35559;DHT22;21661;50.794;-1.066;2023-06-22T10:27:10;21.90;99.90
35559;DHT22;21661;50.794;-1.066;2023-06-22T10:29:36;21.90;99.90
35559;DHT22;21661;50.794;-1.066;2023-06-22T10:32:02;21.90;99.90
35559;DHT22;21661;50.794;-1.066;2023-06-22T10:34:27;22.00;99.90
35559;DHT22;21661;50.794;-1.066;2023-06-22T10:36:53;22.20;99.90
35559;DHT22;21661;50.794;-1.066;2023-06-22T10:39:18;22.40;99.90
35559;DHT22;21661;50.794;-1.066;2023-06-22T10:41:44;22.40;99.90
35559;DHT22;21661;50.794;-1.066;2023-06-22T10:44:10;22.50;99.90
35559;DHT22;21661;50.794;-1.066;2023-06-22T10:46:36;22.60;99.90
35559;DHT22;21661;50.794;-1.066;2023-06-22T10:49:01;22.60;99.90
35559;DHT22;21661;50.794;-1.066;2023-06-22T10:51:27;22.60;99.90
35559;DHT22;21661;50.794;-1.066;2023-06-22T10:53:53;22.60;99.90
35559;DHT22;21661;50.794;-1.066;2023-06-22T10:56:19;22.60;99.90
35559;DHT22;21661;50.794;-1.066;2023-06-22T10:58:45;22.60;99.90
35559;DHT22;21661;50.794;-1.066;2023-06-22T11:01:11;22.70;99.90
35559;DHT22;21661;50.794;-1.066;2023-06-22T11:03:37;22.80;99.90
35559;DHT22;21661;50.794;-1.066;2023-06-22T11:06:03;22.80;99.90
35559;DHT22;21661;50.794;-1.066;2023-06-22T11:08:28;23.00;99.90
35559;DHT22;21661;50.794;-1.066;2023-06-22T11:10:54;23.00;99.90
35559;DHT22;21661;50.794;-1.066;2023-06-22T11:13:19;23.10;99.90
35559;DHT22;21661;50.794;-1.066;2023-06-22T11:15:45;23.20;99.90
35559;DHT22;21661;50.794;-1.066;2023-06-22T11:18:10;23.30;99.90
35559;DHT22;21661;50.794;-1.066;2023-06-22T11:20:36;23.50;99.90
35559;DHT22;21661;50.794;-1.066;2023-06-22T11:23:07;23.50;99.90
35559;DHT22;21661;50.794;-1.066;2023-06-22T11:25:33;23.60;99.90
35559;DHT22;21661;50.794;-1.066;2023-06-22T11:28:02;23.50;99.90
35559;DHT22;21661;50.794;-1.066;2023-06-22T11:30:28;23.60;99.90
35559;DHT22;21661;50.794;-1.066;2023-06-22T11:32:53;23.60;99.90
35559;DHT22;21661;50.794;-1.066;2023-06-22T11:35:19;23.50;99.90
35559;DHT22;21661;50.794;-1.066;2023-06-22T11:37:44;23.60;99.90
35559;DHT22;21661;50.794;-1.066;2023-06-22T11:40:10;23.60;99.90
35559;DHT22;21661;50.794;-1.066;2023-06-22T11:42:36;23.60;99.90
35559;DHT22;21661;50.794;-1.066;2023-06-22T11:45:04;23.70;99.90
35559;DHT22;21661;50.794;-1.066;2023-06-22T11:47:30;23.80;99.90
35559;DHT22;21661;50.794;-1.066;2023-06-22T11:49:55;23.90;99.90
35559;DHT22;21661;50.794;-1.066;2023-06-22T11:52:21;23.90;99.90
35559;DHT22;21661;50.794;-1.066;2023-06-22T11:54:47;24.00;99.90
35559;DHT22;21661;50.794;-1.066;2023-06-22T11:57:12;24.00;99.90
35559;DHT22;21661;50.794;-1.066;2023-06-22T11:59:38;24.00;99.90
35559;DHT22;21661;50.794;-1.066;2023-06-22T12:02:03;24.00;99.90
35559;DHT22;21661;50.794;-1.066;2023-06-22T12:04:30;24.00;99.90
35559;DHT22;21661;50.794;-1.066;2023-06-22T12:06:56;24.00;99.90
35559;DHT22;21661;50.794;-1.066;2023-06-22T12:09:22;24.10;99.90
35559;DHT22;21661;50.794;-1.066;2023-06-22T12:11:47;24.20;99.90
35559;DHT22;21661;50.794;-1.066;2023-06-22T12:14:13;24.20;99.90
35559;DHT22;21661;50.794;-1.066;2023-06-22T12:16:38;24.40;99.90
35559;DHT22;21661;50.794;-1.066;2023-06-22T12:19:04;24.50;99.90
35559;DHT22;21661;50.794;-1.066;2023-06-22T12:21:29;24.70;99.90
35559;DHT22;21661;50.794;-1.066;2023-06-22T12:23:55;24.70;99.90
35559;DHT22;21661;50.794;-1.066;2023-06-22T12:26:21;24.70;99.90
35559;DHT22;21661;50.794;-1.066;2023-06-22T12:28:47;24.70;99.90
35559;DHT22;21661;50.794;-1.066;2023-06-22T12:31:13;24.80;99.90
35559;DHT22;21661;50.794;-1.066;2023-06-22T12:33:39;24.90;99.90
35559;DHT22;21661;50.794;-1.066;2023-06-22T12:36:05;25.00;99.90
35559;DHT22;21661;50.794;-1.066;2023-06-22T12:38:30;25.00;99.90
35559;DHT22;21661;50.794;-1.066;2023-06-22T12:40:56;25.10;99.90
35559;DHT22;21661;50.794;-1.066;2023-06-22T12:43:21;25.20;99.90
35559;DHT22;21661;50.794;-1.066;2023-06-22T12:45:47;25.20;99.90
35559;DHT22;21661;50.794;-1.066;2023-06-22T12:48:13;25.30;99.90
35559;DHT22;21661;50.794;-1.066;2023-06-22T12:50:38;25.40;99.90
35559;DHT22;21661;50.794;-1.066;2023-06-22T12:53:04;25.50;99.90
35559;DHT22;21661;50.794;-1.066;2023-06-22T12:55:31;25.60;99.90
35559;DHT22;21661;50.794;-1.066;2023-06-22T12:57:57;25.50;99.90
35559;DHT22;21661;50.794;-1.066;2023-06-22T13:00:23;25.40;99.90
35559;DHT22;21661;50.794;-1.066;2023-06-22T13:02:48;25.40;99.90
35559;DHT22;21661;50.794;-1.066;2023-06-22T13:05:14;25.50;99.90
35559;DHT22;21661;50.794;-1.066;2023-06-22T13:07:40;25.50;99.90
35559;DHT22;21661;50.794;-1.066;2023-06-22T13:10:07;25.50;99.90
35559;DHT22;21661;50.794;-1.066;2023-06-22T13:12:33;25.60;99.90
35559;DHT22;21661;50.794;-1.066;2023-06-22T13:14:59;25.50;99.90
35559;DHT22;21661;50.794;-1.066;2023-06-22T13:17:24;25.70;99.90
35559;DHT22;21661;50.794;-1.066;2023-06-22T13:19:50;25.90;99.90
35559;DHT22;21661;50.794;-1.066;2023-06-22T13:22:33;25.90;99.90
35559;DHT22;21661;50.794;-1.066;2023-06-22T13:25:06;25.90;99.90
35559;DHT22;21661;50.794;-1.066;2023-06-22T13:27:32;26.00;99.90
35559;DHT22;21661;50.794;-1.066;2023-06-22T13:29:58;26.10;99.90
35559;DHT22;21661;50.794;-1.066;2023-06-22T13:32:24;26.20;99.90
35559;DHT22;21661;50.794;-1.066;2023-06-22T13:34:49;26.10;99.90
35559;DHT22;21661;50.794;-1.066;2023-06-22T13:37:15;26.00;99.90
35559;DHT22;21661;50.794;-1.066;2023-06-22T13:39:41;26.10;99.90
35559;DHT22;21661;50.794;-1.066;2023-06-22T13:42:07;26.10;99.90
35559;DHT22;21661;50.794;-1.066;2023-06-22T13:44:32;26.00;99.90
35559;DHT22;21661;50.794;-1.066;2023-06-22T13:46:59;26.10;99.90
35559;DHT22;21661;50.794;-1.066;2023-06-22T13:49:25;26.30;99.90
35559;DHT22;21661;50.794;-1.066;2023-06-22T13:51:51;26.60;99.90
35559;DHT22;21661;50.794;-1.066;2023-06-22T13:54:17;26.80;99.90
35559;DHT22;21661;50.794;-1.066;2023-06-22T13:56:42;26.70;99.90
35559;DHT22;21661;50.794;-1.066;2023-06-22T13:59:08;26.40;99.90
35559;DHT22;21661;50.794;-1.066;2023-06-22T14:01:37;26.50;99.90
35559;DHT22;21661;50.794;-1.066;2023-06-22T14:04:05;26.50;99.90
35559;DHT22;21661;50.794;-1.066;2023-06-22T14:06:31;26.50;99.90
35559;DHT22;21661;50.794;-1.066;2023-06-22T14:08:56;26.70;99.90
35559;DHT22;21661;50.794;-1.066;2023-06-22T14:11:22;26.80;99.90
35559;DHT22;21661;50.794;-1.066;2023-06-22T14:13:47;26.80;99.90
35559;DHT22;21661;50.794;-1.066;2023-06-22T14:16:13;26.80;99.90
35559;DHT22;21661;50.794;-1.066;2023-06-22T14:18:39;26.90;99.90
35559;DHT22;21661;50.794;-1.066;2023-06-22T14:21:04;26.80;99.90
35559;DHT22;21661;50.794;-1.066;2023-06-22T14:23:30;26.70;99.90
35559;DHT22;21661;50.794;-1.066;2023-06-22T14:25:55;26.60;99.90
35559;DHT22;21661;50.794;-1.066;2023-06-22T14:28:21;26.60;99.90
35559;DHT22;21661;50.794;-1.066;2023-06-22T14:30:47;26.60;99.90
35559;DHT22;21661;50.794;-1.066;2023-06-22T14:33:12;26.60;99.90
35559;DHT22;21661;50.794;-1.066;2023-06-22T14:35:38;26.70;99.90
35559;DHT22;21661;50.794;-1.066;2023-06-22T14:38:04;26.60;99.90
35559;DHT22;21661;50.794;-1.066;2023-06-22T14:40:29;26.60;99.90
35559;DHT22;21661;50.794;-1.066;2023-06-22T14:42:55;26.60;99.90
35559;DHT22;21661;50.794;-1.066;2023-06-22T14:45:23;26.60;99.90
35559;DHT22;21661;50.794;-1.066;2023-06-22T14:47:49;26.40;99.90
35559;DHT22;21661;50.794;-1.066;2023-06-22T14:50:14;26.20;99.90
35559;DHT22;21661;50.794;-1.066;2023-06-22T14:52:40;26.10;99.90
35559;DHT22;21661;50.794;-1.066;2023-06-22T14:55:06;26.10;99.90
35559;DHT22;21661;50.794;-1.066;2023-06-22T14:57:31;26.00;99.90
35559;DHT22;21661;50.794;-1.066;2023-06-22T14:59:57;26.00;99.90
35559;DHT22;21661;50.794;-1.066;2023-06-22T15:02:23;25.90;99.90
35559;DHT22;21661;50.794;-1.066;2023-06-22T15:04:48;25.90;99.90
35559;DHT22;21661;50.794;-1.066;2023-06-22T15:07:14;25.90;99.90
35559;DHT22;21661;50.794;-1.066;2023-06-22T15:09:40;25.80;99.90
35559;DHT22;21661;50.794;-1.066;2023-06-22T15:12:08;25.80;99.90
35559;DHT22;21661;50.794;-1.066;2023-06-22T15:14:39;25.70;99.90
35559;DHT22;21661;50.794;-1.066;2023-06-22T15:17:05;25.70;99.90
35559;DHT22;21661;50.794;-1.066;2023-06-22T15:19:31;25.60;99.90